Terminal Aerodrome Forecast
Issued by NWS

Home | Current Version | Previous Version | Text Only | Print | Product List | Glossary On
Versions: 1 2 3 4 5 6 7 8 9 10 11 12 13
500
FTUS44 KCRP 052331
TAFALI
TAF
KALI 052331Z 0600/0624 12006KT P6SM BKN040
     FM061000 VRB03KT 6SM BR VCSH SCT015 BKN040
     FM061400 33015G23KT P6SM SKC
     FM061700 33020G30KT P6SM SKC
     FM062200 35018G24KT P6SM SKC=

USA.gov is the U.S. government's official web portal to all federal, state and local government web resources and services.